Time;durP1;ratioP1;P1;durP2;ratioP2;P2;SDS_P1;SDS_P2;PMS_P1;PMS_P2;Temp;Humidity;BMP_temperature;BMP_pressure;BME280_temperature;BME280_humidity;BME280_pressure;Samples;Min_cycle;Max_cycle;Signal;HPM_P1;HPM_P2
2023/11/25 00:00:06;;;;;;;1.80;1.55;;;;;;;1.12;57.91;98917.88;5046902;28;20073;-67
2023/11/25 00:02:33;;;;;;;0.40;0.40;;;;;;;1.07;57.96;98922.16;5047430;28;20040;-67
2023/11/25 00:04:58;;;;;;;3.28;1.27;;;;;;;1.05;58.04;98921.28;5048020;28;20052;-67
2023/11/25 00:07:25;;;;;;;0.50;0.50;;;;;;;0.97;58.10;98911.00;5055066;23;20061;-68
2023/11/25 00:09:51;;;;;;;0.65;0.63;;;;;;;0.92;58.04;98908.41;5048107;28;20121;-70
2023/11/25 00:12:16;;;;;;;0.88;0.88;;;;;;;0.92;57.82;98926.31;5047773;28;20042;-70
2023/11/25 00:14:41;;;;;;;0.50;0.50;;;;;;;0.70;57.96;98907.41;5047694;28;20052;-69
2023/11/25 00:17:07;;;;;;;0.75;0.52;;;;;;;0.83;58.10;98929.63;5047958;28;20028;-69
2023/11/25 00:19:34;;;;;;;0.40;0.40;;;;;;;0.82;58.17;98938.16;5088366;22;20401;-67
2023/11/25 00:22:00;;;;;;;0.50;0.50;;;;;;;0.79;58.26;98935.56;5087524;28;20020;-67
2023/11/25 00:24:26;;;;;;;0.40;0.40;;;;;;;0.77;58.27;98939.81;5087742;28;20021;-67
2023/11/25 00:26:51;;;;;;;0.40;0.40;;;;;;;0.77;58.23;98939.81;5087447;28;20028;-68
2023/11/25 00:29:17;;;;;;;0.50;0.50;;;;;;;0.77;58.29;98938.97;5087449;28;20074;-68
2023/11/25 00:31:47;;;;;;;0.45;0.45;;;;;;;0.73;58.55;98938.94;5087572;28;20077;-69
2023/11/25 00:34:13;;;;;;;0.50;0.50;;;;;;;0.78;58.59;98945.78;5087436;28;20077;-68
2023/11/25 00:36:39;;;;;;;0.50;0.50;;;;;;;0.60;58.64;98924.34;5092101;22;20089;-69
2023/11/25 00:39:06;;;;;;;0.77;0.55;;;;;;;0.68;58.89;98937.19;5096490;23;20134;-69
2023/11/25 00:41:33;;;;;;;0.50;0.50;;;;;;;0.85;59.32;98965.41;5095953;22;20079;-69
2023/11/25 00:43:59;;;;;;;1.20;0.63;;;;;;;0.79;59.79;98953.47;5095078;22;20111;-69
2023/11/25 00:46:24;;;;;;;1.13;1.05;;;;;;;0.81;60.00;98964.56;5087222;28;20029;-69
2023/11/25 00:48:52;;;;;;;0.45;0.45;;;;;;;0.65;60.56;98947.38;5069352;28;20028;-69
2023/11/25 00:51:17;;;;;;;0.40;0.40;;;;;;;0.72;61.16;98960.22;5084221;23;20053;-70
2023/11/25 00:53:43;;;;;;;0.55;0.55;;;;;;;0.64;61.52;98961.00;5067157;28;20033;-69
2023/11/25 00:56:09;;;;;;;0.50;0.50;;;;;;;0.68;61.69;98961.03;5067001;28;20017;-70
2023/11/25 00:58:34;;;;;;;0.50;0.50;;;;;;;0.63;62.34;98955.03;5049190;28;20025;-69
2023/11/25 01:00:59;;;;;;;0.50;0.50;;;;;;;0.58;62.59;98954.13;5067085;28;20037;-70
2023/11/25 01:03:25;;;;;;;0.50;0.50;;;;;;;0.55;62.77;98959.22;5066915;28;20025;-69
2023/11/25 01:05:52;;;;;;;0.50;0.50;;;;;;;0.55;63.17;98954.09;5048691;28;20080;-69
2023/11/25 01:08:17;;;;;;;0.50;0.50;;;;;;;0.47;63.45;98954.91;5049201;28;20093;-69
2023/11/25 01:10:42;;;;;;;1.35;0.95;;;;;;;0.46;63.81;98953.16;5071261;23;20045;-69
2023/11/25 01:13:08;;;;;;;0.50;0.45;;;;;;;0.39;64.22;98940.31;5086647;28;20062;-69
2023/11/25 01:15:33;;;;;;;0.40;0.40;;;;;;;0.33;64.44;98947.13;5032121;23;20418;-69
2023/11/25 01:17:58;;;;;;;0.40;0.40;;;;;;;0.28;64.79;98941.09;5025620;28;20042;-69
2023/11/25 01:20:24;;;;;;;0.50;0.50;;;;;;;0.26;65.42;98944.50;5026619;28;20026;-70
2023/11/25 01:22:50;;;;;;;1.23;0.68;;;;;;;0.22;65.48;98941.03;5079339;23;20159;-67
2023/11/25 01:25:15;;;;;;;0.40;0.40;;;;;;;0.25;65.79;98946.19;5084658;28;20071;-68
2023/11/25 01:27:42;;;;;;;0.40;0.40;;;;;;;0.26;65.64;98947.03;5086400;28;20032;-68
2023/11/25 01:30:08;;;;;;;0.43;0.43;;;;;;;0.20;65.90;98938.47;5086496;28;20020;-67
2023/11/25 01:32:34;;;;;;;0.40;0.40;;;;;;;0.23;66.14;98942.75;5086145;28;20519;-67
2023/11/25 01:34:59;;;;;;;0.50;0.50;;;;;;;0.24;66.31;98950.41;5086057;28;20031;-67
2023/11/25 01:37:27;;;;;;;0.50;0.50;;;;;;;0.28;66.22;98940.22;5068195;28;20028;-66
2023/11/25 01:39:53;;;;;;;0.40;0.40;;;;;;;0.28;66.27;98945.34;5085931;28;20032;-67
2023/11/25 01:42:18;;;;;;;1.02;1.02;;;;;;;0.33;66.28;98956.47;5089094;22;20111;-67
2023/11/25 01:44:44;;;;;;;0.45;0.45;;;;;;;0.32;66.75;98932.63;5044680;28;20029;-69
2023/11/25 01:47:10;;;;;;;0.60;0.60;;;;;;;0.37;66.87;98940.31;5044979;28;20033;-68
2023/11/25 01:49:36;;;;;;;0.50;0.50;;;;;;;0.42;66.83;98938.66;5026486;28;20026;-68
2023/11/25 01:54:30;;;;;;;0.45;0.45;;;;;;;0.55;66.76;98949.00;5001577;28;20050;-66
2023/11/25 01:57:02;;;;;;;0.40;0.40;;;;;;;0.54;66.51;98948.16;5004788;28;20053;-67
2023/11/25 01:59:29;;;;;;;0.60;0.60;;;;;;;0.58;66.58;98955.00;5028382;23;20050;-68
2023/11/25 02:01:56;;;;;;;0.50;0.50;;;;;;;0.64;66.50;98958.44;5018565;23;20049;-66
2023/11/25 02:04:22;;;;;;;0.60;0.60;;;;;;;0.65;66.37;98955.03;5043606;28;20081;-66
2023/11/25 02:06:49;;;;;;;1.20;1.20;;;;;;;0.69;66.31;98954.22;5044222;28;20102;-66
2023/11/25 02:09:15;;;;;;;0.50;0.50;;;;;;;0.71;66.27;98961.06;5045260;28;20032;-67
2023/11/25 02:11:54;;;;;;;0.50;0.50;;;;;;;0.74;66.13;98961.09;5027847;28;20021;-67
2023/11/25 02:14:20;;;;;;;0.50;0.50;;;;;;;0.73;66.24;98963.63;5045087;28;20101;-66
2023/11/25 02:16:46;;;;;;;0.50;0.50;;;;;;;0.71;66.25;98958.50;5045396;28;20367;-67
2023/11/25 02:19:12;;;;;;;0.40;0.40;;;;;;;0.70;66.29;98959.34;5045420;28;20059;-67
2023/11/25 02:21:40;;;;;;;0.50;0.50;;;;;;;0.69;66.19;98957.63;5045580;28;20024;-66
2023/11/25 02:24:07;;;;;;;0.40;0.40;;;;;;;0.73;66.25;98967.06;5044960;28;20028;-67
2023/11/25 02:26:32;;;;;;;0.47;0.47;;;;;;;0.71;66.26;98961.06;5043567;28;20079;-67
2023/11/25 02:28:58;;;;;;;1.42;0.85;;;;;;;0.73;66.10;98967.06;5043370;28;20025;-66
2023/11/25 02:31:23;;;;;;;0.40;0.40;;;;;;;0.73;66.23;98967.06;5025677;28;20029;-67
2023/11/25 02:33:49;;;;;;;0.50;0.50;;;;;;;0.76;66.03;98968.75;5043401;28;20032;-67
2023/11/25 02:36:14;;;;;;;0.50;0.50;;;;;;;0.73;66.03;98964.50;5042861;28;20022;-67
2023/11/25 02:38:40;;;;;;;0.70;0.70;;;;;;;0.66;66.09;98960.16;5025902;28;20010;-67
2023/11/25 02:41:05;;;;;;;0.60;0.60;;;;;;;0.65;66.11;98970.38;5043481;28;20495;-67
2023/11/25 02:43:31;;;;;;;0.60;0.60;;;;;;;0.55;66.01;98966.88;5025546;28;20030;-67
2023/11/25 02:45:57;;;;;;;0.50;0.50;;;;;;;0.46;66.19;98968.47;5043123;28;20025;-67
2023/11/25 02:48:23;;;;;;;0.50;0.50;;;;;;;0.43;66.24;98983.78;5045152;23;20112;-70
2023/11/25 02:50:48;;;;;;;0.40;0.40;;;;;;;0.41;66.36;98974.41;5063511;28;20017;-70
2023/11/25 02:53:13;;;;;;;0.40;0.40;;;;;;;0.36;66.52;98976.91;5063187;28;20024;-69
2023/11/25 02:55:39;;;;;;;0.40;0.40;;;;;;;0.33;66.89;98974.34;5069894;22;20064;-67
2023/11/25 02:58:05;;;;;;;0.40;0.40;;;;;;;0.30;66.93;98980.28;5082566;22;20049;-70
2023/11/25 03:00:33;;;;;;;0.50;0.50;;;;;;;0.24;67.00;98975.94;5063097;28;20066;-70
2023/11/25 03:03:07;;;;;;;0.52;0.52;;;;;;;0.26;67.15;98977.69;5044943;28;20069;-68
2023/11/25 03:05:33;;;;;;;1.15;0.95;;;;;;;0.21;67.35;98991.22;5064741;28;20023;-69
2023/11/25 03:08:00;;;;;;;0.50;0.50;;;;;;;0.21;67.26;98991.22;5049312;28;20049;-69
2023/11/25 03:10:26;;;;;;;0.40;0.40;;;;;;;0.16;67.38;98987.75;5067317;28;20025;-69
2023/11/25 03:12:51;;;;;;;0.50;0.50;;;;;;;0.21;67.49;99000.56;5111722;23;20162;-67
2023/11/25 03:15:17;;;;;;;0.40;0.40;;;;;;;0.07;67.56;98980.88;5086860;28;20097;-67
2023/11/25 03:17:42;;;;;;;0.40;0.40;;;;;;;0.14;67.76;98999.66;5078357;22;20014;-68
2023/11/25 03:20:08;;;;;;;0.40;0.40;;;;;;;0.09;67.88;98988.53;5087377;28;20030;-69
2023/11/25 03:22:34;;;;;;;0.40;0.40;;;;;;;0.09;68.14;98996.19;5073866;23;20069;-67
2023/11/25 03:25:01;;;;;;;0.40;0.40;;;;;;;0.14;68.22;99009.88;5086524;28;20046;-66
2023/11/25 03:27:28;;;;;;;0.50;0.50;;;;;;;0.16;68.13;99015.00;5087017;28;20366;-67
2023/11/25 03:29:54;;;;;;;0.47;0.47;;;;;;;0.16;68.68;99017.56;5086847;28;20043;-68
2023/11/25 03:32:20;;;;;;;0.40;0.40;;;;;;;0.12;68.57;99021.75;5086649;28;20025;-67
2023/11/25 03:34:46;;;;;;;0.40;0.40;;;;;;;0.10;69.05;99028.53;5086737;28;20493;-67
2023/11/25 03:37:11;;;;;;;0.50;0.50;;;;;;;0.07;69.08;99033.59;5068450;28;20058;-68
2023/11/25 03:39:37;;;;;;;0.43;0.43;;;;;;;0.05;69.32;99032.75;5086527;28;20080;-67
2023/11/25 03:42:05;;;;;;;0.50;0.50;;;;;;;0.01;69.42;99041.19;5086529;28;20044;-67
2023/11/25 03:44:31;;;;;;;0.50;0.50;;;;;;;-0.06;69.75;99038.56;5086601;28;20362;-67
2023/11/25 03:46:57;;;;;;;0.50;0.50;;;;;;;-0.14;69.93;99033.34;5086044;28;20023;-67
2023/11/25 03:49:22;;;;;;;1.23;0.80;;;;;;;-0.13;70.34;99052.09;5086427;28;20094;-67
2023/11/25 03:51:48;;;;;;;0.70;0.70;;;;;;;-0.15;70.38;99066.50;5096628;23;20344;-69
2023/11/25 03:54:13;;;;;;;0.40;0.40;;;;;;;-0.21;70.59;99053.66;5090509;22;20072;-69
2023/11/25 03:56:38;;;;;;;4.43;2.85;;;;;;;-0.23;70.87;99071.50;5052429;23;20048;-67
2023/11/25 03:59:04;;;;;;;0.60;0.60;;;;;;;-0.22;70.79;99069.81;5045347;28;20309;-67
2023/11/25 04:01:29;;;;;;;0.40;0.40;;;;;;;-0.16;70.96;99087.75;5054383;23;20451;-68
2023/11/25 04:03:55;;;;;;;0.60;0.60;;;;;;;-0.14;71.17;99098.81;5046157;28;20060;-68
2023/11/25 04:06:20;;;;;;;0.40;0.40;;;;;;;-0.13;71.21;99096.28;5045668;28;20034;-68
2023/11/25 04:08:45;;;;;;;0.50;0.50;;;;;;;-0.11;71.38;99096.31;5046298;28;20052;-69
2023/11/25 04:11:11;;;;;;;0.50;0.50;;;;;;;-0.09;71.32;99099.75;5046414;28;20071;-69
2023/11/25 04:13:36;;;;;;;0.50;0.50;;;;;;;-0.11;71.15;99101.41;5046068;28;20084;-68
2023/11/25 04:16:03;;;;;;;0.50;0.50;;;;;;;-0.06;71.20;99119.34;5027341;28;20022;-70
2023/11/25 04:18:30;;;;;;;1.95;1.85;;;;;;;-0.04;70.92;99125.31;5027403;28;20021;-70
2023/11/25 04:20:55;;;;;;;0.50;0.50;;;;;;;-0.07;71.22;99126.16;5045776;28;20068;-68
2023/11/25 04:23:21;;;;;;;0.50;0.50;;;;;;;-0.08;71.05;99115.94;5053782;22;20036;-67
2023/11/25 04:25:46;;;;;;;0.50;0.50;;;;;;;-0.06;71.19;99120.19;5064773;28;20029;-67
2023/11/25 04:28:12;;;;;;;1.27;1.17;;;;;;;-0.04;71.13;99117.66;5065598;28;20077;-67
2023/11/25 04:30:39;;;;;;;0.50;0.50;;;;;;;-0.05;71.20;99118.50;5071386;22;20037;-69
2023/11/25 04:33:09;;;;;;;0.65;0.60;;;;;;;0.05;70.97;99139.94;5053626;23;20056;-68
2023/11/25 04:35:34;;;;;;;0.57;0.57;;;;;;;0.03;70.99;99136.47;5065688;28;20461;-69
2023/11/25 04:38:00;;;;;;;0.50;0.50;;;;;;;-0.07;70.99;99123.59;5047486;28;20081;-68
2023/11/25 04:40:25;;;;;;;0.60;0.60;;;;;;;0.09;70.95;99146.78;5065515;28;20025;-67
2023/11/25 04:42:51;;;;;;;0.60;0.60;;;;;;;0.08;70.99;99152.72;5065595;28;20021;-67
2023/11/25 04:45:16;;;;;;;0.95;0.80;;;;;;;0.08;70.86;99156.13;5047272;28;20277;-68
2023/11/25 04:47:47;;;;;;;0.40;0.40;;;;;;;0.12;70.88;99159.56;5065524;28;20077;-68
2023/11/25 04:50:13;;;;;;;0.40;0.40;;;;;;;0.13;70.85;99166.38;5047390;28;20029;-68
2023/11/25 04:52:39;;;;;;;0.45;0.45;;;;;;;0.21;70.71;99177.56;5064945;28;20028;-68
2023/11/25 04:55:12;;;;;;;0.50;0.50;;;;;;;0.22;70.70;99179.28;5047136;28;20028;-68
2023/11/25 04:57:38;;;;;;;0.40;0.40;;;;;;;0.25;70.46;99181.03;5065118;28;20028;-68
2023/11/25 05:00:10;;;;;;;0.50;0.50;;;;;;;0.22;70.49;99181.81;5065536;28;20025;-68
2023/11/25 05:02:39;;;;;;;0.50;0.50;;;;;;;0.13;70.79;99186.81;5061164;23;20431;-68
2023/11/25 05:05:05;;;;;;;0.50;0.50;;;;;;;0.19;70.56;99196.25;5058148;22;20135;-68
2023/11/25 05:07:31;;;;;;;0.50;0.50;;;;;;;0.16;70.50;99191.13;5064892;28;20082;-68
2023/11/25 05:09:57;;;;;;;1.88;0.68;;;;;;;0.11;70.56;99196.16;5063867;28;20013;-66
2023/11/25 05:12:23;;;;;;;0.50;0.50;;;;;;;0.11;70.69;99206.38;5064903;28;20025;-67
2023/11/25 05:14:49;;;;;;;0.50;0.50;;;;;;;0.10;70.70;99212.28;5048409;28;20354;-68
2023/11/25 05:17:14;;;;;;;0.40;0.40;;;;;;;0.08;71.22;99211.44;5066333;28;20025;-67
2023/11/25 05:19:40;;;;;;;0.60;0.60;;;;;;;0.08;71.21;99213.97;5064890;28;20028;-66
2023/11/25 05:22:05;;;;;;;0.50;0.50;;;;;;;0.13;71.32;99226.81;5066117;28;20107;-67
2023/11/25 05:24:30;;;;;;;0.40;0.40;;;;;;;0.12;71.53;99225.94;5066354;28;20024;-67
2023/11/25 05:26:56;;;;;;;0.50;0.50;;;;;;;0.11;71.73;99245.50;5066148;28;20064;-67
2023/11/25 05:29:21;;;;;;;0.50;0.50;;;;;;;0.09;71.83;99251.41;5065104;28;20029;-67
2023/11/25 05:31:47;;;;;;;0.50;0.50;;;;;;;0.14;71.95;99254.03;5065947;28;20035;-67
2023/11/25 05:34:12;;;;;;;0.50;0.50;;;;;;;0.12;72.09;99259.13;5065926;28;20098;-67
2023/11/25 05:37:03;;;;;;;0.50;0.50;;;;;;;0.16;72.44;99263.44;5070073;22;20048;-68
2023/11/25 05:39:29;;;;;;;0.67;0.67;;;;;;;0.08;72.43;99265.03;5062530;23;20112;-68
2023/11/25 05:41:54;;;;;;;0.50;0.50;;;;;;;-0.04;72.40;99258.88;5065029;22;20083;-66
2023/11/25 05:44:20;;;;;;;0.40;0.40;;;;;;;-0.04;72.69;99274.19;5044428;28;20049;-67
2023/11/25 05:46:46;;;;;;;0.50;0.50;;;;;;;-0.08;72.66;99276.66;5043900;28;20029;-67
2023/11/25 05:49:11;;;;;;;0.40;0.40;;;;;;;-0.11;72.80;99291.94;5026558;28;20036;-67
2023/11/25 05:51:39;;;;;;;1.08;1.08;;;;;;;-0.16;72.82;99296.94;5043759;28;20021;-67
2023/11/25 05:54:05;;;;;;;0.40;0.40;;;;;;;-0.20;72.93;99292.59;5044220;28;20037;-67
2023/11/25 05:56:31;;;;;;;0.40;0.40;;;;;;;-0.28;72.81;99288.25;5043951;28;20025;-67
2023/11/25 05:58:57;;;;;;;0.52;0.52;;;;;;;-0.30;72.71;99289.91;5043911;28;20029;-68
2023/11/25 06:01:22;;;;;;;0.52;0.52;;;;;;;-0.31;72.79;99302.63;5044173;28;20021;-67
2023/11/25 06:03:50;;;;;;;0.40;0.40;;;;;;;-0.40;72.87;99303.34;5043872;28;20029;-67
2023/11/25 06:06:16;;;;;;;1.35;1.25;;;;;;;-0.43;72.87;99313.47;5043701;28;20021;-68
2023/11/25 06:08:42;;;;;;;0.43;0.43;;;;;;;-0.41;72.82;99322.00;5052031;23;20060;-68
2023/11/25 06:11:07;;;;;;;0.40;0.40;;;;;;;-0.50;72.88;99323.53;5025984;28;20044;-68
2023/11/25 06:13:32;;;;;;;0.50;0.50;;;;;;;-0.43;72.97;99333.88;5043512;28;20025;-69
2023/11/25 06:15:58;;;;;;;0.80;0.70;;;;;;;-0.54;72.90;99316.66;5051639;22;20085;-67
2023/11/25 06:18:24;;;;;;;0.40;0.40;;;;;;;-0.43;73.23;99341.53;5051443;23;20439;-68
2023/11/25 06:20:50;;;;;;;0.40;0.40;;;;;;;-0.46;72.80;99338.94;5089010;22;20079;-67
2023/11/25 06:23:15;;;;;;;0.52;0.52;;;;;;;-0.46;72.92;99344.03;5072404;23;20053;-69
2023/11/25 06:25:42;;;;;;;0.50;0.50;;;;;;;-0.52;72.64;99349.84;5083403;28;20066;-69
2023/11/25 06:28:09;;;;;;;0.40;0.40;;;;;;;-0.52;72.66;99360.91;5084011;28;20497;-69
2023/11/25 06:30:34;;;;;;;0.60;0.60;;;;;;;-0.55;72.55;99365.09;5083453;28;20082;-69
2023/11/25 06:33:00;;;;;;;0.50;0.50;;;;;;;-0.67;72.62;99358.06;5072699;22;20058;-67
2023/11/25 06:35:26;;;;;;;0.40;0.40;;;;;;;-0.57;72.47;99372.69;5081078;28;20043;-66
2023/11/25 06:37:51;;;;;;;0.40;0.40;;;;;;;-0.62;72.39;99381.94;5083311;28;20032;-66
2023/11/25 06:40:17;;;;;;;8.70;0.98;;;;;;;-0.67;72.29;99386.94;5082528;28;20016;-67
2023/11/25 06:42:42;;;;;;;8.27;0.90;;;;;;;-0.64;72.25;99402.31;5065350;28;20021;-66
2023/11/25 06:45:08;;;;;;;0.40;0.40;;;;;;;-0.68;72.18;99400.53;5083192;28;20420;-67
2023/11/25 06:47:34;;;;;;;1.73;0.70;;;;;;;-0.67;71.97;99406.50;5065757;28;20025;-67
2023/11/25 06:50:00;;;;;;;2.15;1.45;;;;;;;-0.73;71.88;99402.13;5083524;28;20076;-67
2023/11/25 06:52:26;;;;;;;0.50;0.50;;;;;;;-0.75;71.74;99388.47;5083859;28;20024;-67
2023/11/25 06:54:51;;;;;;;0.50;0.50;;;;;;;-0.75;71.95;99409.72;5087643;22;20105;-68
2023/11/25 06:57:17;;;;;;;0.40;0.40;;;;;;;-0.77;71.75;99416.47;5084773;28;20039;-68
2023/11/25 06:59:45;;;;;;;0.50;0.50;;;;;;;-0.76;71.61;99428.41;5084725;28;20020;-68
2023/11/25 07:02:14;;;;;;;0.40;0.40;;;;;;;-0.74;71.53;99436.09;5066640;28;20029;-68
2023/11/25 07:04:40;;;;;;;0.50;0.50;;;;;;;-0.74;71.58;99441.19;5066599;28;20028;-69
2023/11/25 07:07:05;;;;;;;0.60;0.60;;;;;;;-0.75;71.45;99449.63;5075733;23;20052;-68
2023/11/25 07:09:30;;;;;;;0.50;0.50;;;;;;;-0.75;71.60;99452.19;5097529;23;20048;-67
2023/11/25 07:11:56;;;;;;;0.50;0.50;;;;;;;-0.77;71.48;99441.97;5086318;28;20020;-66
2023/11/25 07:14:22;;;;;;;0.90;0.90;;;;;;;-0.70;71.25;99453.16;5104874;28;20022;-67
2023/11/25 07:16:48;;;;;;;0.50;0.50;;;;;;;-0.66;71.18;99451.53;5086725;28;20027;-67
2023/11/25 07:19:13;;;;;;;0.85;0.65;;;;;;;-0.61;71.20;99457.63;5086819;28;20024;-67
2023/11/25 07:21:38;;;;;;;1.77;1.67;;;;;;;-0.56;71.09;99470.47;5104579;28;20050;-68
2023/11/25 07:24:05;;;;;;;0.47;0.47;;;;;;;-0.71;71.17;99460.78;5104706;28;20019;-67
2023/11/25 07:26:30;;;;;;;0.50;0.50;;;;;;;-0.57;71.27;99482.34;5104120;28;20020;-67
2023/11/25 07:28:56;;;;;;;0.50;0.50;;;;;;;-0.58;70.92;99483.19;5099387;22;20053;-68
2023/11/25 07:31:25;;;;;;;0.50;0.50;;;;;;;-0.65;70.77;99463.47;5102954;23;20520;-67
2023/11/25 07:33:51;;;;;;;0.40;0.40;;;;;;;-0.64;71.13;99460.94;5103064;28;20070;-67
2023/11/25 07:36:17;;;;;;;0.50;0.50;;;;;;;-0.54;70.71;99484.97;5104449;28;20553;-67
2023/11/25 07:38:42;;;;;;;0.40;0.40;;;;;;;-0.57;70.58;99484.88;5050863;22;20045;-67
2023/11/25 07:41:15;;;;;;;0.57;0.57;;;;;;;-0.67;70.45;99455.78;5064332;28;20045;-65
2023/11/25 07:43:41;;;;;;;0.50;0.50;;;;;;;-0.59;70.11;99489.09;5098679;23;20053;-70
2023/11/25 07:46:11;;;;;;;0.60;0.60;;;;;;;-0.58;69.87;99495.06;5053141;22;20126;-66
2023/11/25 07:48:36;;;;;;;0.40;0.40;;;;;;;-0.59;69.81;99503.53;5005282;28;20025;-68
2023/11/25 07:51:02;;;;;;;0.68;0.68;;;;;;;-0.57;69.02;99514.63;5005863;28;20356;-66
2023/11/25 07:53:28;;;;;;;0.43;0.43;;;;;;;-0.60;68.73;99520.53;5008436;28;20045;-66
2023/11/25 07:55:54;;;;;;;0.40;0.40;;;;;;;-0.58;68.77;99529.06;5008558;28;20034;-66
2023/11/25 07:58:19;;;;;;;0.40;0.40;;;;;;;-0.59;68.78;99522.22;4991157;28;20040;-66
2023/11/25 08:00:44;;;;;;;0.47;0.47;;;;;;;-0.37;68.39;99530.38;5008557;28;20499;-65
2023/11/25 08:03:10;;;;;;;0.40;0.40;;;;;;;-0.35;67.78;99525.31;5008343;28;20193;-66
2023/11/25 08:05:35;;;;;;;0.40;0.40;;;;;;;-0.32;67.53;99533.03;5048859;22;20064;-68
2023/11/25 08:08:03;;;;;;;0.50;0.50;;;;;;;-0.42;67.30;99542.16;5074407;22;20116;-69
2023/11/25 08:10:33;;;;;;;0.50;0.50;;;;;;;-0.52;67.32;99551.28;5062570;22;20033;-67
2023/11/25 08:12:59;;;;;;;0.50;0.50;;;;;;;-0.65;66.81;99552.69;5047667;28;20448;-68
2023/11/25 08:15:24;;;;;;;0.40;0.40;;;;;;;-0.56;67.04;99565.66;5047376;28;20021;-67
2023/11/25 08:17:49;;;;;;;0.50;0.50;;;;;;;-0.45;66.65;99577.78;5028121;28;20102;-67
2023/11/25 08:20:15;;;;;;;2.05;0.80;;;;;;;-0.36;66.70;99565.25;5044749;28;20021;-66
2023/11/25 08:22:40;;;;;;;0.50;0.50;;;;;;;-0.31;66.59;99558.56;5047197;28;20076;-67
2023/11/25 08:25:09;;;;;;;0.50;0.50;;;;;;;-0.34;66.27;99560.19;5047642;28;20024;-67
2023/11/25 08:27:35;;;;;;;0.68;0.68;;;;;;;-0.18;66.72;99566.50;5047352;28;20028;-66
2023/11/25 08:30:00;;;;;;;0.50;0.50;;;;;;;0.07;66.29;99569.56;5029869;28;20053;-67
2023/11/25 08:32:26;;;;;;;0.57;0.57;;;;;;;0.35;65.84;99568.41;5029580;28;20100;-67
2023/11/25 08:34:51;;;;;;;0.40;0.40;;;;;;;0.38;65.17;99569.31;5047647;28;20433;-67
2023/11/25 08:37:16;;;;;;;2.10;1.33;;;;;;;0.44;65.23;99569.44;5047051;28;20503;-67
2023/11/25 08:39:43;;;;;;;0.55;0.55;;;;;;;0.55;65.43;99569.63;5047088;28;20026;-66
2023/11/25 08:42:09;;;;;;;0.40;0.40;;;;;;;0.79;65.38;99570.94;5029596;28;20108;-66
2023/11/25 08:44:36;;;;;;;0.65;0.52;;;;;;;0.82;65.00;99570.97;5049253;22;20049;-67
2023/11/25 08:47:02;;;;;;;0.40;0.40;;;;;;;0.40;64.27;99557.47;5082781;22;20045;-68
2023/11/25 08:49:27;;;;;;;0.40;0.40;;;;;;;0.14;64.02;99568.88;5106845;22;20529;-66
2023/11/25 08:51:53;;;;;;;0.40;0.40;;;;;;;-0.03;64.79;99582.13;5086916;28;20051;-67
2023/11/25 08:54:19;;;;;;;0.40;0.40;;;;;;;0.02;65.50;99592.44;5086994;28;20024;-66
2023/11/25 08:56:45;;;;;;;0.40;0.40;;;;;;;0.24;65.92;99588.63;5086916;28;20108;-67
2023/11/25 08:59:12;;;;;;;0.82;0.82;;;;;;;0.61;65.81;99598.72;5087001;28;20029;-67
2023/11/25 09:01:42;;;;;;;0.40;0.40;;;;;;;0.99;66.20;99595.16;5068879;28;20024;-67
2023/11/25 09:04:08;;;;;;;0.50;0.50;;;;;;;1.35;65.52;99594.88;5068167;28;20111;-66
2023/11/25 09:06:37;;;;;;;1.55;0.93;;;;;;;1.58;65.30;99608.03;5068458;28;20028;-67
2023/11/25 09:09:04;;;;;;;0.50;0.50;;;;;;;1.77;64.82;99599.78;5086891;28;20016;-67
2023/11/25 09:11:29;;;;;;;0.40;0.40;;;;;;;1.97;64.89;99598.38;5086564;28;20024;-66
2023/11/25 09:13:55;;;;;;;0.68;0.68;;;;;;;2.19;63.23;99597.81;5086479;28;20024;-66
2023/11/25 09:17:15;;;;;;;0.73;0.73;;;;;;;2.22;63.30;99602.97;5074515;23;20119;-68
2023/11/25 09:19:41;;;;;;;0.50;0.50;;;;;;;2.23;62.41;99595.28;5046642;28;20064;-69
2023/11/25 09:22:07;;;;;;;0.40;0.40;;;;;;;2.01;61.70;99599.28;5087465;22;20079;-68
2023/11/25 09:24:33;;;;;;;0.77;0.77;;;;;;;1.85;62.34;99598.19;5070372;23;20049;-68
2023/11/25 09:27:01;;;;;;;0.50;0.50;;;;;;;1.84;63.04;99599.88;5064355;28;20044;-67
2023/11/25 09:29:26;;;;;;;0.40;0.40;;;;;;;2.15;62.87;99603.69;5067103;22;20049;-66
2023/11/25 09:31:52;;;;;;;0.55;0.55;;;;;;;2.31;63.55;99620.13;5055295;23;20045;-69
2023/11/25 09:34:17;;;;;;;0.88;0.88;;;;;;;2.62;63.51;99612.78;5028419;28;20477;-69
2023/11/25 09:36:43;;;;;;;0.70;0.70;;;;;;;2.90;62.72;99618.25;5045802;28;20029;-70
2023/11/25 09:39:09;;;;;;;0.43;0.43;;;;;;;3.13;62.43;99632.13;5046092;28;20461;-71
2023/11/25 09:41:36;;;;;;;0.40;0.40;;;;;;;3.54;60.97;99628.22;5046086;28;20092;-69
2023/11/25 09:44:05;;;;;;;0.52;0.50;;;;;;;3.52;58.39;99628.19;5028106;28;20031;-69
2023/11/25 09:46:35;;;;;;;0.57;0.57;;;;;;;2.68;57.11;99618.03;5054413;22;21598;-68
2023/11/25 09:49:00;;;;;;;0.50;0.50;;;;;;;2.09;58.20;99620.69;5047750;28;20103;-68
2023/11/25 09:51:32;;;;;;;0.40;0.40;;;;;;;1.77;58.71;99608.31;5065033;28;20138;-67
2023/11/25 09:54:03;;;;;;;0.88;0.80;;;;;;;1.77;59.58;99631.38;5065407;28;20025;-68
2023/11/25 09:56:29;;;;;;;0.50;0.50;;;;;;;2.03;58.97;99617.22;5047562;28;20032;-67
2023/11/25 09:58:55;;;;;;;0.57;0.57;;;;;;;2.21;58.43;99625.13;5065438;28;20120;-68
2023/11/25 10:01:22;;;;;;;0.93;0.93;;;;;;;2.62;58.50;99629.91;5047384;28;20020;-67
2023/11/25 10:03:51;;;;;;;0.50;0.50;;;;;;;2.99;58.17;99634.56;5043688;28;20048;-67
2023/11/25 10:06:18;;;;;;;0.52;0.52;;;;;;;3.22;56.73;99640.78;5047034;28;20028;-67
2023/11/25 10:08:44;;;;;;;0.85;0.55;;;;;;;3.11;56.46;99642.38;5047335;28;20024;-67
2023/11/25 10:11:09;;;;;;;0.50;0.50;;;;;;;2.93;55.75;99625.97;5065258;28;20032;-67
2023/11/25 10:13:37;;;;;;;0.40;0.40;;;;;;;2.62;55.36;99637.59;5065191;28;20025;-67
2023/11/25 10:16:03;;;;;;;1.15;1.15;;;;;;;1.94;55.18;99634.16;5065355;28;20025;-66
2023/11/25 10:18:29;;;;;;;0.40;0.40;;;;;;;1.26;56.29;99654.44;5065040;28;20281;-67
2023/11/25 10:20:58;;;;;;;0.45;0.45;;;;;;;0.74;57.08;99665.38;5065139;28;20021;-67
2023/11/25 10:23:26;;;;;;;1.05;0.75;;;;;;;0.48;58.71;99669.13;5065069;28;20473;-67
2023/11/25 10:25:53;;;;;;;0.40;0.40;;;;;;;0.53;59.16;99676.88;5075294;23;20067;-68
2023/11/25 10:28:25;;;;;;;0.50;0.50;;;;;;;0.61;59.26;99671.94;5084945;28;20028;-70
2023/11/25 10:30:57;;;;;;;0.50;0.50;;;;;;;0.57;59.53;99659.94;5084877;28;20020;-70
2023/11/25 10:33:24;;;;;;;;;;;;;;;0.55;58.78;99656.50;5085796;28;20024;-69
2023/11/25 10:35:49;;;;;;;0.65;0.55;;;;;;;0.49;59.14;99644.47;5085012;28;20366;-70
2023/11/25 10:38:16;;;;;;;0.57;0.57;;;;;;;0.31;59.01;99678.13;5084909;28;20025;-71
2023/11/25 10:40:42;;;;;;;1.25;0.88;;;;;;;0.03;59.40;99691.16;5067173;28;20035;-68
2023/11/25 10:43:08;;;;;;;0.50;0.50;;;;;;;-0.23;59.44;99698.19;5084971;28;20024;-69
2023/11/25 10:45:34;;;;;;;0.50;0.50;;;;;;;-0.35;59.88;99691.09;5066877;28;20023;-68
2023/11/25 10:48:00;;;;;;;0.70;0.70;;;;;;;-0.52;59.87;99691.53;5066940;28;20119;-68
2023/11/25 10:50:26;;;;;;;1.27;1.08;;;;;;;-0.66;59.97;99703.94;5076308;23;20077;-67
2023/11/25 10:52:57;;;;;;;0.50;0.50;;;;;;;-0.70;60.91;99692.78;5023439;28;20032;-67
2023/11/25 10:55:25;;;;;;;0.70;0.70;;;;;;;-0.06;60.14;99703.69;5037273;22;20022;-69
2023/11/25 10:57:51;;;;;;;0.50;0.50;;;;;;;0.89;58.08;99669.94;5049621;23;20037;-68
2023/11/25 11:00:17;;;;;;;2.50;0.80;;;;;;;1.54;56.24;99687.28;5084949;28;20025;-68
2023/11/25 11:02:47;;;;;;;0.50;0.50;;;;;;;2.14;54.63;99687.34;5066676;28;20021;-68
2023/11/25 11:05:17;;;;;;;0.50;0.50;;;;;;;2.59;53.48;99705.03;5084875;28;20504;-68
2023/11/25 11:07:47;;;;;;;1.63;1.15;;;;;;;3.18;52.94;99710.00;5066423;28;20127;-68
2023/11/25 11:10:40;;;;;;;0.40;0.40;;;;;;;3.66;51.83;99701.91;5066549;28;20032;-67
2023/11/25 11:13:08;;;;;;;0.57;0.57;;;;;;;4.02;50.67;99705.59;5076472;28;20036;-68
2023/11/25 11:15:38;;;;;;;0.40;0.40;;;;;;;4.03;49.69;99707.31;5084608;28;20016;-67
2023/11/25 11:18:15;;;;;;;0.40;0.40;;;;;;;2.80;50.21;99717.25;5084330;28;20124;-68
2023/11/25 11:20:49;;;;;;;0.50;0.50;;;;;;;1.51;52.18;99697.44;5084587;28;20028;-67
2023/11/25 11:23:17;;;;;;;1.00;1.00;;;;;;;0.64;53.67;99728.19;5086631;23;20053;-68
2023/11/25 11:25:51;;;;;;;0.45;0.45;;;;;;;0.01;55.06;99725.97;5046784;28;20435;-68
2023/11/25 11:28:23;;;;;;;0.50;0.50;;;;;;;-0.43;55.93;99711.31;5054606;23;20041;-69
2023/11/25 11:31:07;;;;;;;0.40;0.40;;;;;;;-0.93;56.94;99690.50;5030497;28;20026;-70
2023/11/25 11:33:33;;;;;;;0.40;0.40;;;;;;;-1.10;57.54;99702.78;5086254;23;20166;-68
2023/11/25 11:35:58;;;;;;;0.50;0.50;;;;;;;-1.20;57.90;99713.53;5088149;28;20021;-68
2023/11/25 11:41:21;;;;;;;0.47;0.47;;;;;;;-1.29;58.70;99720.09;5085778;23;20108;-67